« Back
NWS Peachtree City, Ga » Text Product » ATL Terminal Aerodrome Forecast


Printer-friendly Version
Current Version              Previous Versions:   1  2  3  4  5  6  7  8  9  

Terminal Aerodrome Forecast

957
FTUS42 KFFC 010334 AAB
TAFATL
TAF AMD
KATL 010334Z 0104/0206 14005KT P6SM VCSH SCT060 BKN250
     FM011400 21006KT P6SM BKN015
     FM011600 23009KT P6SM VCSH BKN025
     FM011800 23010KT 4SM -TSRA BKN030CB
     FM012100 23008KT P6SM VCSH OVC040=

USA.gov is the U.S. government's official web portal to all federal, state and local government web resources and services.